Time;durP1;ratioP1;P1;durP2;ratioP2;P2;SDS_P1;SDS_P2;PMS_P1;PMS_P2;Temp;Humidity;BMP_temperature;BMP_pressure;BME280_temperature;BME280_humidity;BME280_pressure;Samples;Min_cycle;Max_cycle;Signal;HPM_P1;HPM_P2
2023/08/03 00:01:08;;;;;;;10.23;4.05;;;;;;;25.22;94.35;99724.47;4992943;28;20049;-67
2023/08/03 00:03:36;;;;;;;8.30;4.15;;;;;;;25.17;94.99;99725.66;4992958;28;20379;-67
2023/08/03 00:06:04;;;;;;;6.70;4.20;;;;;;;25.18;94.54;99738.47;4992683;28;20402;-67
2023/08/03 00:08:33;;;;;;;7.40;3.83;;;;;;;25.32;94.61;99734.06;4992968;28;20078;-67
2023/08/03 00:11:01;;;;;;;7.55;4.22;;;;;;;25.43;93.12;99732.03;4992388;28;20073;-67
2023/08/03 00:13:29;;;;;;;6.78;4.10;;;;;;;25.35;93.28;99739.66;4992944;28;20046;-67
2023/08/03 00:15:58;;;;;;;5.43;3.90;;;;;;;25.39;93.58;99738.84;4992555;28;20051;-67
2023/08/03 00:18:25;;;;;;;7.82;3.97;;;;;;;25.34;92.90;99740.06;4993185;28;20057;-67
2023/08/03 00:20:53;;;;;;;7.30;4.20;;;;;;;25.28;94.48;99738.84;4992092;28;20058;-66
2023/08/03 00:23:21;;;;;;;6.35;4.38;;;;;;;25.15;94.66;99733.69;4992651;28;20061;-67
2023/08/03 00:25:49;;;;;;;8.00;4.18;;;;;;;25.41;93.50;99737.22;4992669;28;20046;-67
2023/08/03 00:28:20;;;;;;;12.98;3.90;;;;;;;25.31;93.52;99738.84;4992697;28;20505;-67
2023/08/03 00:30:48;;;;;;;7.07;3.75;;;;;;;25.26;94.26;99735.69;4991592;28;20050;-67
2023/08/03 00:33:16;;;;;;;8.38;4.28;;;;;;;24.99;95.54;99736.06;4974967;28;20062;-67
2023/08/03 00:35:44;;;;;;;11.85;4.00;;;;;;;25.04;95.24;99746.88;4991530;28;20057;-67
2023/08/03 00:38:12;;;;;;;9.13;3.92;;;;;;;25.07;95.83;99749.66;4992902;28;20057;-66
2023/08/03 00:40:40;;;;;;;5.13;3.67;;;;;;;25.10;95.23;99739.66;4991756;28;20486;-66
2023/08/03 00:43:08;;;;;;;12.18;4.93;;;;;;;25.21;95.84;99753.66;4992178;28;20054;-66
2023/08/03 00:45:36;;;;;;;3.95;3.55;;;;;;;25.11;96.17;99746.09;4991486;28;20512;-67
2023/08/03 00:48:04;;;;;;;8.38;3.90;;;;;;;25.32;94.98;99748.06;4992385;28;20050;-66
2023/08/03 00:50:32;;;;;;;8.02;4.22;;;;;;;25.15;95.46;99744.88;4975106;28;20389;-66
2023/08/03 00:53:00;;;;;;;8.68;4.68;;;;;;;25.17;96.17;99745.25;4986311;28;20046;-66
2023/08/03 00:55:28;;;;;;;8.07;4.15;;;;;;;25.40;94.50;99740.47;5012133;28;20053;-67
2023/08/03 00:57:56;;;;;;;8.73;3.88;;;;;;;25.33;95.31;99735.66;5010595;28;20053;-67
2023/08/03 01:00:24;;;;;;;6.47;4.32;;;;;;;25.35;95.23;99738.84;5012080;28;20050;-66
2023/08/03 01:02:52;;;;;;;9.63;4.50;;;;;;;25.21;96.29;99734.88;5026684;28;20082;-67
2023/08/03 01:05:20;;;;;;;8.88;3.92;;;;;;;25.30;96.13;99744.84;5010091;28;20058;-66
2023/08/03 01:07:48;;;;;;;7.07;3.83;;;;;;;25.48;94.94;99748.41;5012282;28;20046;-66
2023/08/03 01:10:16;;;;;;;6.55;3.90;;;;;;;25.31;95.28;99754.88;5012055;28;20057;-67
2023/08/03 01:12:44;;;;;;;9.10;4.22;;;;;;;25.32;95.39;99746.03;5011571;28;20400;-67
2023/08/03 01:15:13;;;;;;;11.95;4.28;;;;;;;25.21;96.20;99740.47;5011605;28;20054;-66
2023/08/03 01:17:41;;;;;;;9.27;4.63;;;;;;;25.05;97.04;99740.88;5011189;28;20523;-67
2023/08/03 01:20:10;;;;;;;8.68;4.47;;;;;;;25.20;96.43;99733.28;5012135;28;20058;-66
2023/08/03 01:22:42;;;;;;;6.35;4.05;;;;;;;25.20;96.64;99729.66;5011827;28;20050;-66
2023/08/03 01:25:11;;;;;;;8.77;4.67;;;;;;;25.21;96.21;99734.88;5011447;28;20065;-67
2023/08/03 01:27:40;;;;;;;7.03;4.43;;;;;;;24.98;97.41;99726.09;5011888;28;20053;-67
2023/08/03 01:30:09;;;;;;;7.68;4.20;;;;;;;25.12;97.25;99726.06;5010883;28;20046;-66
2023/08/03 01:32:37;;;;;;;6.82;4.13;;;;;;;25.21;96.66;99718.06;5009969;28;20048;-66
2023/08/03 01:35:06;;;;;;;6.20;4.25;;;;;;;25.06;97.50;99724.88;5009978;28;20061;-66
2023/08/03 01:37:35;;;;;;;6.80;4.40;;;;;;;25.14;97.31;99720.88;5011965;28;20065;-66
2023/08/03 01:40:04;;;;;;;7.22;4.05;;;;;;;25.03;97.45;99718.06;5010563;28;20373;-66
2023/08/03 01:42:32;;;;;;;4.60;3.85;;;;;;;24.94;98.50;99710.09;5014870;28;20050;-67
2023/08/03 01:45:00;;;;;;;6.88;4.18;;;;;;;25.02;97.38;99710.09;5012838;28;20432;-66
2023/08/03 01:47:28;;;;;;;7.85;3.60;;;;;;;25.05;97.65;99698.91;5015415;28;20413;-66
2023/08/03 01:49:56;;;;;;;7.15;4.28;;;;;;;25.02;97.76;99710.09;5014803;28;20057;-67
2023/08/03 01:52:24;;;;;;;6.82;4.43;;;;;;;25.12;97.77;99698.06;5012563;28;20472;-66
2023/08/03 01:54:52;;;;;;;6.05;4.18;;;;;;;25.08;97.22;99694.50;4995586;28;20054;-66
2023/08/03 01:57:20;;;;;;;7.97;3.92;;;;;;;24.88;97.95;99689.31;4994485;28;20407;-67
2023/08/03 01:59:48;;;;;;;6.80;4.30;;;;;;;24.89;98.83;99695.72;4978224;28;20058;-66
2023/08/03 02:02:16;;;;;;;8.55;4.50;;;;;;;24.59;99.86;99691.28;4978151;28;20053;-67
2023/08/03 02:04:48;;;;;;;7.53;3.80;;;;;;;24.89;98.82;99699.31;4994932;28;20050;-66
2023/08/03 02:07:18;;;;;;;8.52;3.85;;;;;;;25.03;97.64;99703.31;4978070;28;20047;-67
2023/08/03 02:09:46;;;;;;;6.03;4.45;;;;;;;24.99;98.99;99699.69;4995092;28;20054;-66
2023/08/03 02:12:13;;;;;;;7.63;4.85;;;;;;;24.95;98.81;99688.50;4994687;28;20046;-67
2023/08/03 02:14:41;;;;;;;12.35;4.78;;;;;;;25.16;100.00;99696.09;4993606;28;20053;-66
2023/08/03 02:17:09;;;;;;;12.27;5.35;;;;;;;25.15;100.00;99691.69;4993952;28;20045;-66
2023/08/03 02:19:37;;;;;;;10.95;4.57;;;;;;;24.99;100.00;99689.31;4977429;28;20126;-66
2023/08/03 02:22:05;;;;;;;10.57;4.63;;;;;;;24.65;100.00;99693.28;4977250;28;20050;-66
2023/08/03 02:24:33;;;;;;;6.15;4.88;;;;;;;24.62;100.00;99685.69;4994889;28;20413;-67
2023/08/03 02:27:01;;;;;;;12.55;4.78;;;;;;;24.67;100.00;99687.28;4994795;28;20054;-67
2023/08/03 02:29:29;;;;;;;11.05;5.10;;;;;;;24.41;100.00;99684.47;4994702;28;20050;-67
2023/08/03 02:31:57;;;;;;;6.60;4.68;;;;;;;24.31;100.00;99682.44;4977340;28;20050;-67
2023/08/03 02:34:25;;;;;;;10.70;6.13;;;;;;;24.02;100.00;99685.16;4994595;28;20061;-67
2023/08/03 02:36:58;;;;;;;8.10;5.05;;;;;;;24.09;100.00;99690.78;4976555;28;20046;-66
2023/08/03 02:39:26;;;;;;;9.85;5.38;;;;;;;24.34;100.00;99690.03;4976722;28;20046;-66
2023/08/03 02:41:55;;;;;;;8.32;5.78;;;;;;;24.32;100.00;99698.03;4977241;28;20081;-66
2023/08/03 02:44:28;;;;;;;8.93;6.05;;;;;;;24.23;100.00;99697.59;4976346;28;20053;-66
2023/08/03 02:46:55;;;;;;;10.68;6.57;;;;;;;24.48;100.00;99694.06;4976528;28;20047;-66
2023/08/03 02:49:23;;;;;;;8.05;6.38;;;;;;;24.33;100.00;99687.66;4994615;28;20509;-66
2023/08/03 02:51:52;;;;;;;9.85;6.53;;;;;;;24.23;100.00;99687.22;4976754;28;20046;-66
2023/08/03 02:54:28;;;;;;;10.35;6.15;;;;;;;24.29;100.00;99676.44;5011029;28;20057;-66
2023/08/03 02:56:57;;;;;;;13.15;7.43;;;;;;;24.37;100.00;99672.47;5012197;28;20053;-66
2023/08/03 02:59:25;;;;;;;9.02;6.57;;;;;;;24.41;100.00;99675.28;5012012;28;20113;-66
2023/08/03 03:01:53;;;;;;;8.88;6.38;;;;;;;24.24;100.00;99676.84;5011906;28;20054;-66
2023/08/03 03:04:27;;;;;;;11.73;6.80;;;;;;;24.32;100.00;99672.06;5012123;28;20050;-66
2023/08/03 03:06:55;;;;;;;8.10;5.82;;;;;;;24.43;100.00;99676.47;5012257;28;20370;-67
2023/08/03 03:09:24;;;;;;;6.88;5.32;;;;;;;24.38;100.00;99681.66;5013077;28;20065;-66
2023/08/03 03:11:55;;;;;;;9.90;5.55;;;;;;;24.27;100.00;99692.81;5011870;28;20058;-67
2023/08/03 03:14:30;;;;;;;9.88;5.60;;;;;;;24.26;100.00;99686.44;5011678;28;20057;-67
2023/08/03 03:16:58;;;;;;;13.18;4.95;;;;;;;24.28;100.00;99681.25;5012410;28;20377;-67
2023/08/03 03:19:26;;;;;;;10.55;5.53;;;;;;;24.46;100.00;99685.25;5011639;28;20046;-67
2023/08/03 03:21:55;;;;;;;9.50;5.90;;;;;;;24.31;100.00;99679.66;5012924;28;20050;-66
2023/08/03 03:24:22;;;;;;;6.82;5.00;;;;;;;24.38;100.00;99678.84;5013183;28;20412;-66
2023/08/03 03:26:50;;;;;;;8.43;4.80;;;;;;;24.47;100.00;99692.44;5012189;28;20054;-66
2023/08/03 03:29:19;;;;;;;10.13;5.15;;;;;;;24.57;100.00;99702.84;5012029;28;20038;-67
2023/08/03 03:31:49;;;;;;;10.15;5.38;;;;;;;24.62;100.00;99705.25;5011420;28;20057;-66
2023/08/03 03:34:17;;;;;;;6.57;4.72;;;;;;;24.66;100.00;99696.88;5012028;28;20393;-66
2023/08/03 03:36:47;;;;;;;11.13;4.85;;;;;;;24.68;99.37;99697.28;5011651;28;20049;-66
2023/08/03 03:39:15;;;;;;;8.52;4.75;;;;;;;24.66;99.03;99699.66;5011937;28;20046;-66
2023/08/03 03:41:45;;;;;;;7.60;4.65;;;;;;;24.62;99.72;99699.66;5010982;28;20393;-66
2023/08/03 03:44:15;;;;;;;9.40;5.13;;;;;;;24.67;100.00;99704.88;5011395;28;20053;-67
2023/08/03 03:46:44;;;;;;;7.47;4.93;;;;;;;24.74;100.00;99704.09;5012822;28;20068;-66
2023/08/03 03:49:12;;;;;;;12.25;4.80;;;;;;;24.63;99.76;99706.84;5012488;28;20050;-66
2023/08/03 03:51:40;;;;;;;6.55;4.90;;;;;;;24.75;100.00;99697.28;5012891;28;20038;-66
2023/08/03 03:54:10;;;;;;;8.35;4.75;;;;;;;24.87;99.07;99709.31;4996099;28;20050;-66
2023/08/03 03:56:38;;;;;;;7.28;4.53;;;;;;;24.89;99.08;99712.50;4992066;28;20038;-66
2023/08/03 03:59:06;;;;;;;6.10;4.40;;;;;;;24.84;98.27;99708.09;4992991;28;20495;-67
2023/08/03 04:01:35;;;;;;;7.07;4.68;;;;;;;24.79;99.35;99706.47;4973428;28;20049;-66
2023/08/03 04:04:03;;;;;;;7.32;5.03;;;;;;;24.68;98.08;99712.06;4975194;28;20505;-66
2023/08/03 04:06:31;;;;;;;10.70;4.57;;;;;;;24.70;98.12;99712.44;4992761;28;20042;-65
2023/08/03 04:08:59;;;;;;;8.70;4.50;;;;;;;24.85;97.46;99712.50;4992519;28;20053;-66
2023/08/03 04:11:27;;;;;;;8.02;4.47;;;;;;;24.72;99.55;99714.06;4992107;28;20054;-66
2023/08/03 04:13:56;;;;;;;8.70;4.80;;;;;;;24.75;99.64;99710.47;4991880;28;20485;-66
2023/08/03 04:16:24;;;;;;;7.65;4.93;;;;;;;24.87;97.46;99710.09;4974976;28;20058;-66
2023/08/03 04:18:52;;;;;;;9.23;5.05;;;;;;;24.81;97.49;99715.31;4992276;28;20506;-66
2023/08/03 04:21:20;;;;;;;7.18;4.57;;;;;;;24.89;96.71;99718.91;4991207;28;20054;-65
2023/08/03 04:23:48;;;;;;;9.98;4.88;;;;;;;24.92;98.85;99718.09;4975402;28;20042;-66
2023/08/03 04:26:16;;;;;;;6.25;4.13;;;;;;;24.99;97.20;99727.69;4975335;28;20058;-66
2023/08/03 04:28:45;;;;;;;8.27;5.13;;;;;;;24.79;97.03;99714.84;4991593;28;20038;-66
2023/08/03 04:31:13;;;;;;;7.97;4.40;;;;;;;24.84;96.87;99708.09;4993008;28;20055;-66
2023/08/03 04:33:46;;;;;;;9.77;4.73;;;;;;;24.78;96.13;99712.47;4975203;28;20077;-67
2023/08/03 04:36:14;;;;;;;8.55;4.68;;;;;;;24.80;95.11;99715.66;4974793;28;20055;-66
2023/08/03 04:38:42;;;;;;;7.90;4.72;;;;;;;24.67;96.11;99721.66;4974956;28;20494;-66
2023/08/03 04:41:10;;;;;;;6.38;4.22;;;;;;;24.58;98.07;99714.84;4992886;28;20050;-66
2023/08/03 04:43:42;;;;;;;6.60;4.53;;;;;;;24.68;96.97;99714.06;4974431;28;20054;-66
2023/08/03 04:46:14;;;;;;;8.30;4.55;;;;;;;24.58;96.67;99712.06;4975330;28;20414;-66
2023/08/03 04:48:42;;;;;;;6.10;4.15;;;;;;;24.67;98.37;99707.66;4992360;28;20063;-66
2023/08/03 04:51:10;;;;;;;7.68;4.35;;;;;;;24.69;97.23;99705.25;4992052;28;20073;-66
2023/08/03 04:53:39;;;;;;;8.52;4.32;;;;;;;24.90;95.88;99717.69;4975151;28;20053;-66
2023/08/03 04:56:08;;;;;;;7.47;4.05;;;;;;;25.05;93.83;99717.69;4975223;28;20055;-66
2023/08/03 04:58:36;;;;;;;5.18;4.03;;;;;;;25.04;93.29;99719.69;4992411;28;20054;-66
2023/08/03 05:01:04;;;;;;;6.20;4.05;;;;;;;25.15;93.27;99708.47;4991247;28;20417;-66
2023/08/03 05:03:32;;;;;;;7.32;4.63;;;;;;;25.12;93.59;99709.28;4992516;28;20398;-66
2023/08/03 05:06:03;;;;;;;6.28;4.28;;;;;;;25.13;94.94;99722.09;4974287;28;20061;-66
2023/08/03 05:08:33;;;;;;;5.82;4.05;;;;;;;25.25;94.18;99728.44;4974502;28;20520;-67
2023/08/03 05:11:01;;;;;;;9.90;4.43;;;;;;;25.29;93.60;99729.25;4992321;28;20050;-66
2023/08/03 05:13:34;;;;;;;8.18;4.50;;;;;;;25.22;92.55;99727.28;4974648;28;20109;-67
2023/08/03 05:16:02;;;;;;;7.22;4.15;;;;;;;24.92;91.92;99723.69;4975992;28;20512;-66
2023/08/03 05:18:30;;;;;;;6.68;4.00;;;;;;;25.16;91.28;99726.88;4978350;28;20520;-67
2023/08/03 05:20:58;;;;;;;7.30;4.03;;;;;;;25.17;91.75;99728.47;4978424;28;20054;-67
2023/08/03 05:23:26;;;;;;;7.50;4.10;;;;;;;25.35;91.28;99733.25;4977893;28;20050;-66
2023/08/03 05:25:55;;;;;;;9.25;4.35;;;;;;;25.33;90.30;99730.06;4995856;28;20050;-67
2023/08/03 05:28:25;;;;;;;7.80;4.18;;;;;;;25.41;90.46;99736.44;4995905;28;20509;-67
2023/08/03 05:30:53;;;;;;;9.18;3.70;;;;;;;25.53;90.81;99746.41;4995959;28;20050;-67
2023/08/03 05:33:21;;;;;;;4.88;3.67;;;;;;;25.64;91.69;99750.03;4995493;28;20058;-66
2023/08/03 05:35:49;;;;;;;8.13;4.20;;;;;;;25.62;92.45;99755.25;4995403;28;20516;-66
2023/08/03 05:38:18;;;;;;;10.20;4.95;;;;;;;25.63;93.49;99749.25;4995658;28;20057;-66
2023/08/03 05:40:46;;;;;;;7.00;3.97;;;;;;;25.78;92.48;99757.59;4995893;28;20054;-66
2023/08/03 05:43:14;;;;;;;8.07;4.50;;;;;;;25.89;93.21;99757.53;4994832;28;20054;-66
2023/08/03 05:45:53;;;;;;;8.25;3.63;;;;;;;25.90;92.44;99756.34;4995839;28;20081;-67
2023/08/03 05:48:21;;;;;;;9.38;4.53;;;;;;;25.99;90.71;99751.09;4995526;28;20050;-67
2023/08/03 05:50:53;;;;;;;8.63;4.22;;;;;;;26.08;91.42;99766.69;4995118;28;20057;-67
2023/08/03 05:53:21;;;;;;;9.77;4.90;;;;;;;26.25;91.38;99774.25;4995357;28;20054;-67
2023/08/03 05:55:50;;;;;;;7.93;4.47;;;;;;;26.35;90.83;99774.59;4978101;28;20057;-67
2023/08/03 05:58:35;;;;;;;7.50;4.40;;;;;;;26.50;88.69;99764.91;4995602;28;20043;-66
2023/08/03 06:01:04;;;;;;;6.20;3.83;;;;;;;26.68;88.64;99763.97;4992934;28;20058;-67
2023/08/03 06:03:36;;;;;;;7.55;4.25;;;;;;;26.96;86.44;99768.63;4999651;28;20065;-67
2023/08/03 06:06:06;;;;;;;6.93;4.60;;;;;;;26.98;84.96;99765.41;4999526;28;20500;-67
2023/08/03 06:08:36;;;;;;;7.18;4.22;;;;;;;26.92;84.02;99772.66;4999266;28;20050;-67
2023/08/03 06:11:05;;;;;;;6.70;4.35;;;;;;;27.18;85.94;99762.03;4998179;28;20050;-66
2023/08/03 06:13:35;;;;;;;6.18;4.07;;;;;;;27.59;84.06;99771.69;4999968;28;20431;-67
2023/08/03 06:16:14;;;;;;;9.55;4.32;;;;;;;27.59;79.34;99769.69;4999569;28;20058;-67
2023/08/03 06:18:54;;;;;;;9.35;3.85;;;;;;;27.77;76.81;99779.94;4998921;28;20050;-67
2023/08/03 06:21:25;;;;;;;9.00;4.05;;;;;;;27.60;75.71;99771.28;4997257;28;20054;-67
2023/08/03 06:23:57;;;;;;;8.55;3.90;;;;;;;26.90;77.63;99775.06;4997187;28;20509;-68
2023/08/03 06:26:30;;;;;;;7.15;3.78;;;;;;;27.40;76.22;99773.88;4996656;28;20432;-67
2023/08/03 06:29:02;;;;;;;6.30;3.80;;;;;;;27.45;74.85;99773.41;4995823;28;20046;-67
2023/08/03 06:31:35;;;;;;;6.82;3.78;;;;;;;27.26;74.65;99774.78;4997026;28;20054;-67
2023/08/03 06:34:05;;;;;;;4.85;2.97;;;;;;;27.32;74.88;99778.75;4996653;28;20433;-67
2023/08/03 06:36:36;;;;;;;4.57;3.45;;;;;;;27.65;74.75;99783.31;4996794;28;20389;-68
2023/08/03 06:39:05;;;;;;;7.68;3.63;;;;;;;27.73;74.74;99780.00;4998719;28;20708;-67
2023/08/03 06:41:34;;;;;;;7.03;3.70;;;;;;;27.27;73.77;99773.56;4997138;28;20055;-67
2023/08/03 06:44:03;;;;;;;5.80;3.70;;;;;;;27.29;75.17;99779.59;4997388;28;20042;-67
2023/08/03 06:46:32;;;;;;;5.72;3.67;;;;;;;27.12;78.23;99769.31;4997686;28;20050;-67
2023/08/03 06:49:02;;;;;;;7.28;3.65;;;;;;;27.34;77.62;99765.09;4998387;28;20069;-67
2023/08/03 06:51:32;;;;;;;6.97;3.78;;;;;;;27.50;75.90;99761.72;4998081;28;20054;-67
2023/08/03 06:54:02;;;;;;;4.38;3.60;;;;;;;27.82;73.35;99762.63;4998167;28;20050;-67
2023/08/03 06:56:31;;;;;;;4.50;3.53;;;;;;;27.97;75.02;99776.50;4998698;28;20410;-67
2023/08/03 06:59:00;;;;;;;7.28;3.63;;;;;;;28.16;74.03;99775.84;4998954;28;20050;-67
2023/08/03 07:01:29;;;;;;;5.88;3.40;;;;;;;27.75;73.95;99774.75;4998843;28;20058;-67
2023/08/03 07:03:58;;;;;;;6.93;3.78;;;;;;;28.03;74.89;99781.25;4997623;28;20064;-67
2023/08/03 07:06:27;;;;;;;6.97;3.50;;;;;;;28.15;71.41;99776.31;4998119;28;20058;-67
2023/08/03 07:08:56;;;;;;;7.55;3.75;;;;;;;28.20;72.22;99772.22;4998686;28;20061;-67
2023/08/03 07:11:25;;;;;;;7.63;3.80;;;;;;;28.56;69.85;99778.19;4998094;28;20427;-67
2023/08/03 07:13:54;;;;;;;7.35;3.25;;;;;;;28.88;70.34;99773.28;4998525;28;20049;-67
2023/08/03 07:16:23;;;;;;;6.07;3.55;;;;;;;28.93;68.71;99783.31;4997310;28;20571;-67
2023/08/03 07:18:52;;;;;;;5.03;3.15;;;;;;;28.33;70.31;99786.56;4997884;28;20058;-67
2023/08/03 07:21:21;;;;;;;7.60;4.25;;;;;;;28.64;72.13;99790.13;4997639;28;20054;-67
2023/08/03 07:23:50;;;;;;;9.20;3.70;;;;;;;28.52;71.65;99785.06;4998192;28;20069;-67
2023/08/03 07:26:18;;;;;;;7.95;3.83;;;;;;;28.56;72.35;99788.63;4995051;28;20054;-68
2023/08/03 07:28:46;;;;;;;7.15;3.83;;;;;;;28.78;73.82;99779.88;4995443;28;20074;-67
2023/08/03 07:31:15;;;;;;;7.35;4.03;;;;;;;28.70;70.97;99788.41;4994054;28;20049;-67
2023/08/03 07:33:43;;;;;;;4.55;3.15;;;;;;;28.99;71.20;99781.59;4993267;28;20063;-67
2023/08/03 07:36:17;;;;;;;5.93;3.63;;;;;;;29.27;70.83;99784.34;4993477;28;20063;-67
2023/08/03 07:38:46;;;;;;;6.63;3.53;;;;;;;29.06;73.49;99789.09;4993430;28;20049;-67
2023/08/03 07:41:15;;;;;;;7.28;4.47;;;;;;;28.82;71.09;99780.59;4992892;28;20054;-67
2023/08/03 07:43:43;;;;;;;6.35;3.60;;;;;;;29.01;71.91;99787.59;4993500;28;20057;-67
2023/08/03 07:46:12;;;;;;;6.30;3.80;;;;;;;28.97;73.31;99795.28;4995029;28;20409;-67
2023/08/03 07:48:41;;;;;;;7.15;4.05;;;;;;;29.15;71.36;99795.00;4995041;28;20045;-67
2023/08/03 07:51:19;;;;;;;9.70;4.05;;;;;;;29.23;70.15;99804.13;4978370;28;20065;-67
2023/08/03 07:53:50;;;;;;;8.02;3.83;;;;;;;29.16;70.29;99799.41;4996683;28;20417;-67
2023/08/03 07:56:21;;;;;;;9.23;4.78;;;;;;;28.77;71.46;99795.16;4997003;28;20070;-67
2023/08/03 07:58:51;;;;;;;9.60;4.38;;;;;;;28.88;72.64;99787.38;4996996;28;20054;-67
2023/08/03 08:01:21;;;;;;;10.18;4.53;;;;;;;28.62;72.94;99795.38;4996259;28;20421;-67
2023/08/03 08:03:50;;;;;;;6.03;4.03;;;;;;;28.77;73.81;99779.06;4997351;28;20046;-67
2023/08/03 08:06:20;;;;;;;10.13;4.45;;;;;;;29.00;72.21;99773.91;4996486;28;20065;-67
2023/08/03 08:08:51;;;;;;;5.32;3.85;;;;;;;29.10;70.61;99770.94;4996397;28;20074;-67
2023/08/03 08:11:21;;;;;;;6.78;3.72;;;;;;;29.31;70.65;99785.06;4996438;28;20051;-66
2023/08/03 08:13:49;;;;;;;6.60;3.45;;;;;;;29.23;70.74;99782.38;4996273;28;20062;-66
2023/08/03 08:16:18;;;;;;;5.88;4.43;;;;;;;29.07;72.40;99785.88;4996277;28;20054;-66
2023/08/03 08:18:48;;;;;;;6.03;3.75;;;;;;;29.58;70.45;99787.03;4996574;28;20061;-67
2023/08/03 08:21:17;;;;;;;5.63;3.65;;;;;;;29.86;69.18;99782.88;4996664;28;20043;-67
2023/08/03 08:23:46;;;;;;;7.68;3.95;;;;;;;29.88;69.33;99776.81;4996294;28;20401;-67
2023/08/03 08:26:17;;;;;;;5.68;3.17;;;;;;;29.67;70.38;99781.66;4996775;28;20050;-67
2023/08/03 08:28:47;;;;;;;7.38;3.83;;;;;;;29.73;70.04;99788.38;4996998;28;20050;-66
2023/08/03 08:31:31;;;;;;;6.95;4.45;;;;;;;30.01;69.59;99788.25;4996997;28;20397;-66
2023/08/03 08:34:20;;;;;;;5.25;4.15;;;;;;;30.25;67.99;99797.41;4996649;28;20055;-69
2023/08/03 08:36:51;;;;;;;7.07;4.13;;;;;;;30.18;69.90;99794.75;4996484;28;20051;-67
2023/08/03 08:39:20;;;;;;;5.85;4.18;;;;;;;30.24;69.28;99806.34;4996498;28;20417;-67
2023/08/03 08:41:49;;;;;;;6.18;4.07;;;;;;;30.47;67.87;99793.34;4996245;28;20081;-68
2023/08/03 08:44:18;;;;;;;5.65;3.80;;;;;;;30.40;67.67;99797.13;4978033;28;20042;-66
2023/08/03 08:46:48;;;;;;;4.65;3.17;;;;;;;30.50;63.46;99803.75;4991551;28;20366;-67
2023/08/03 08:49:17;;;;;;;9.68;4.00;;;;;;;30.68;64.30;99803.34;4993997;28;20402;-67
2023/08/03 08:51:51;;;;;;;7.00;3.65;;;;;;;30.22;65.89;99803.16;4995240;28;20066;-67
2023/08/03 08:54:33;;;;;;;7.82;4.63;;;;;;;30.15;63.80;99812.56;4997614;28;20058;-67
2023/08/03 08:57:05;;;;;;;5.80;4.03;;;;;;;30.64;63.11;99809.06;4996804;28;20070;-67
2023/08/03 09:00:05;;;;;;;6.10;4.28;;;;;;;30.86;59.89;99802.97;4998433;28;20061;-67
2023/08/03 09:02:36;;;;;;;6.22;4.00;;;;;;;31.31;60.00;99800.69;4998791;28;20391;-67
2023/08/03 09:05:19;;;;;;;7.40;4.22;;;;;;;31.48;57.23;99795.81;4999728;28;20058;-68
2023/08/03 09:08:13;;;;;;;7.50;4.18;;;;;;;31.44;59.26;99807.22;4999437;28;20058;-68
2023/08/03 09:10:53;;;;;;;6.57;3.85;;;;;;;31.19;60.23;99799.34;4981328;28;20050;-67
2023/08/03 09:13:40;;;;;;;8.40;4.22;;;;;;;31.53;59.36;99792.44;4999218;28;20045;-66
2023/08/03 09:16:22;;;;;;;8.70;3.85;;;;;;;31.49;57.87;99798.19;4999554;28;20076;-67
2023/08/03 09:18:51;;;;;;;10.23;4.55;;;;;;;31.78;59.78;99797.41;4999199;28;20054;-67
2023/08/03 09:21:20;;;;;;;5.90;4.38;;;;;;;31.39;58.39;99804.94;4999219;28;20062;-67
2023/08/03 09:23:52;;;;;;;4.82;3.55;;;;;;;31.36;59.26;99794.50;4999446;28;20158;-67
2023/08/03 09:26:24;;;;;;;7.25;4.25;;;;;;;31.55;58.00;99808.94;4999372;28;20069;-67
2023/08/03 09:28:56;;;;;;;8.70;3.53;;;;;;;31.56;54.14;99797.19;4998764;28;20069;-67
2023/08/03 09:31:26;;;;;;;5.03;3.10;;;;;;;32.33;54.00;99812.88;4998975;28;20062;-67
2023/08/03 09:33:59;;;;;;;6.70;4.15;;;;;;;31.89;57.95;99807.66;4999406;28;20061;-66
2023/08/03 09:36:28;;;;;;;5.60;4.57;;;;;;;31.36;60.04;99797.31;4998735;28;20122;-66
2023/08/03 09:39:13;;;;;;;14.73;4.93;;;;;;;31.21;61.02;99805.34;4999447;28;20054;-66
2023/08/03 09:41:46;;;;;;;7.00;3.95;;;;;;;31.35;60.58;99792.91;4999421;28;20058;-67
2023/08/03 09:44:17;;;;;;;8.17;4.13;;;;;;;31.61;60.19;99801.50;4999536;28;20069;-67
2023/08/03 09:46:50;;;;;;;4.18;2.67;;;;;;;31.50;53.51;99798.97;4998135;28;20058;-67
2023/08/03 09:49:18;;;;;;;4.00;2.80;;;;;;;31.62;51.61;99805.94;4982125;28;20051;-67
2023/08/03 09:51:53;;;;;;;4.57;2.88;;;;;;;31.90;53.35;99809.25;4999070;28;20054;-67
2023/08/03 09:54:52;;;;;;;7.10;3.33;;;;;;;32.47;51.47;99802.38;4999108;28;20419;-67
2023/08/03 09:57:29;;;;;;;4.07;2.53;;;;;;;32.79;49.11;99812.69;4995676;28;20065;-67
2023/08/03 10:00:08;;;;;;;5.20;3.00;;;;;;;33.01;51.00;99817.69;4996655;28;20069;-67
2023/08/03 10:03:07;;;;;;;3.60;2.83;;;;;;;33.11;49.67;99812.91;4996197;28;20528;-67
2023/08/03 10:05:42;;;;;;;5.63;3.00;;;;;;;32.53;51.58;99804.19;4991777;28;20066;-66
2023/08/03 10:08:22;;;;;;;6.78;3.03;;;;;;;32.46;51.14;99812.13;4995993;28;20512;-67
2023/08/03 10:10:56;;;;;;;5.65;3.15;;;;;;;32.30;52.75;99813.78;4995915;28;20047;-67
2023/08/03 10:13:27;;;;;;;6.60;4.00;;;;;;;32.26;54.08;99813.09;4996148;28;20077;-67
2023/08/03 10:15:57;;;;;;;8.02;3.65;;;;;;;32.46;51.64;99804.44;4995872;28;20054;-67
2023/08/03 10:18:26;;;;;;;4.35;3.20;;;;;;;32.60;53.11;99806.03;4996784;28;20062;-67
2023/08/03 10:21:16;;;;;;;6.03;3.88;;;;;;;32.39;53.80;99802.56;4997251;28;20054;-67
2023/08/03 10:24:17;;;;;;;2.97;2.50;;;;;;;32.20;53.68;99803.56;4998145;28;20208;-66
2023/08/03 10:26:52;;;;;;;4.18;3.20;;;;;;;32.44;52.60;99804.06;4997672;28;20223;-67
2023/08/03 10:29:57;;;;;;;4.05;3.25;;;;;;;32.73;52.05;99794.69;4997721;28;20077;-67
2023/08/03 10:32:27;;;;;;;6.65;3.28;;;;;;;33.00;52.12;99795.47;4957254;29;20050;-67
2023/08/03 10:35:34;;;;;;;3.47;2.80;;;;;;;32.51;50.61;99792.53;4991287;28;20142;-67
2023/08/03 10:38:03;;;;;;;3.13;2.70;;;;;;;33.00;51.09;99790.63;4997246;28;20058;-66
2023/08/03 10:40:32;;;;;;;5.25;2.88;;;;;;;32.84;50.79;99789.47;4997493;28;20054;-67
2023/08/03 10:43:09;;;;;;;3.72;2.95;;;;;;;32.55;52.00;99790.38;4997952;28;20057;-67
2023/08/03 10:45:42;;;;;;;4.80;2.60;;;;;;;32.84;53.33;99794.34;4997362;28;20050;-67
2023/08/03 10:48:30;;;;;;;3.25;2.83;;;;;;;33.30;51.39;99791.25;4997264;28;20054;-67
2023/08/03 10:51:02;;;;;;;4.03;2.58;;;;;;;33.54;52.32;99787.22;4997352;28;20057;-67
2023/08/03 10:53:31;;;;;;;6.15;3.08;;;;;;;33.14;50.60;99797.84;5008409;28;20050;-67
2023/08/03 10:56:05;;;;;;;5.13;3.15;;;;;;;32.93;51.89;99790.84;5017530;28;20058;-67
2023/08/03 10:58:48;;;;;;;5.75;3.10;;;;;;;33.69;49.91;99784.66;5016925;28;20073;-67
2023/08/03 11:01:24;;;;;;;4.70;2.80;;;;;;;33.95;50.47;99785.31;5016882;28;20053;-67
2023/08/03 11:03:53;;;;;;;3.92;3.08;;;;;;;34.11;50.97;99786.41;5016411;28;20063;-67
2023/08/03 11:06:24;;;;;;;4.65;2.75;;;;;;;34.73;48.19;99787.66;5015682;28;20065;-67
2023/08/03 11:08:55;;;;;;;4.22;2.97;;;;;;;35.20;48.67;99779.28;5015184;28;20057;-67
2023/08/03 11:11:32;;;;;;;6.45;3.20;;;;;;;34.49;47.56;99781.72;5013983;28;20073;-68
2023/08/03 11:14:03;;;;;;;5.47;2.90;;;;;;;34.81;46.33;99785.31;5013305;28;20054;-67
2023/08/03 11:16:34;;;;;;;5.45;2.65;;;;;;;34.07;45.71;99777.22;5014606;28;20416;-67
2023/08/03 11:19:03;;;;;;;4.47;2.72;;;;;;;33.77;48.13;99780.31;5014374;28;20050;-67
2023/08/03 11:21:32;;;;;;;4.45;2.90;;;;;;;33.68;48.50;99775.38;5013920;28;20049;-67
2023/08/03 11:24:01;;;;;;;4.50;2.90;;;;;;;33.47;50.57;99772.00;5014667;28;20042;-67
2023/08/03 11:26:30;;;;;;;5.30;2.53;;;;;;;34.16;47.48;99778.06;5014072;28;20516;-68
2023/08/03 11:28:59;;;;;;;4.38;2.75;;;;;;;34.01;47.69;99774.19;5015206;28;20058;-67
2023/08/03 11:31:27;;;;;;;3.60;2.70;;;;;;;34.12;48.99;99770.94;5015596;28;20046;-68
2023/08/03 11:33:56;;;;;;;5.00;2.80;;;;;;;33.57;49.52;99772.91;5015482;28;20393;-67
2023/08/03 11:36:25;;;;;;;7.03;3.05;;;;;;;33.71;47.55;99771.59;5015163;28;20087;-68
2023/08/03 11:38:54;;;;;;;7.32;3.10;;;;;;;33.84;51.26;99765.06;5015153;28;20034;-67
2023/08/03 11:41:24;;;;;;;4.50;2.90;;;;;;;34.01;49.12;99760.75;5015084;28;20056;-68
2023/08/03 11:43:56;;;;;;;5.40;2.55;;;;;;;33.21;49.52;99760.75;5014447;28;20057;-67
2023/08/03 11:46:28;;;;;;;5.43;2.83;;;;;;;32.63;51.62;99759.78;5014812;28;20397;-67
2023/08/03 11:48:58;;;;;;;3.92;2.85;;;;;;;32.99;51.89;99760.72;5015046;28;20050;-67